Holbrook, Pennsylvania
Current Conditions -  °F | °C
As of 6:15 AM on Saturday 01 Nov 2014 (Local Time) from KAFJ Reporting Station
Overcast Overcast  
Wind Chill: 35°   Ceiling: 800
Heat Index: 39°   Visibility: 8mi
Dew Point: 37°   Wind: 6mph
Humidity: 93%   Direction: 20°NNE
Pressure: 29.94"   Gusts: NA
Location:  39.86°N, 80.31°W
Report Text: KAFJ 011015Z AUTO 02005KT 8SM OVC008 04/03 A2994 RMK AO1
Loading
Personal Weather Stations






























Interactive Weather Map
Tropical Storm Tracking
New forecast layout! Learn more

10-Day Weather Forecast

Advertisements
Track Severe Weather on mobile